SAAR/ROS METAR and TAF weather

Enter ICAO airport designator
Station Type Date Time Source
SAAR METAR 2022/01/29 13:00 UTC NOAA

SAAR 291300Z 05008KT CAVOK 25/15 Q1013 RMK PP000


Station Type Date Time Source
SAAR Decoded METAR 2022/01/29 13:00 UTC NOAA

Rosario Aerodrome, Argentina (SAAR) 32-55S 060-47W 25M
Jan 29, 2022 - 08:00 AM EST / 2022.01.29 1300 UTC
Wind: from the NE (050 degrees) at 9 MPH (8 KT):0
Visibility: greater than 7 mile(s):0
Temperature: 77 F (25 C)
Dew Point: 59 F (15 C)
Relative Humidity: 53%
Pressure (altimeter): 29.91 in. Hg (1013 hPa)
ob: SAAR 291300Z 05008KT CAVOK 25/15 Q1013 RMK PP000
cycle: 13

Station Type Date Time Source
SAAR TAF 2022/01/29 12:12 UTC NOAA

TAF TAF SAAR 291100Z 2912/3012 VRB05KT CAVOK TX30/2919Z TN15/3009Z
BECMG 2912/2915 06010KT
BECMG 2923/3001 VRB05KT

Example: see airport list